createdAt,value
2023-02-09T00:00:52.341Z,-0.96
2023-02-09T00:04:55.583Z,-1.01
2023-02-09T00:08:59.393Z,-0.99
2023-02-09T00:13:20.194Z,-0.88
2023-02-09T00:17:24.579Z,-0.86
2023-02-09T00:21:27.580Z,-0.77
2023-02-09T00:25:30.654Z,-0.77
2023-02-09T00:29:33.728Z,-0.76
2023-02-09T00:33:38.934Z,-1.08
2023-02-09T00:37:42.478Z,-1.29
2023-02-09T00:42:03.263Z,-1.38
2023-02-09T00:46:07.057Z,-1.39
2023-02-09T00:50:11.535Z,-1.59
2023-02-09T00:54:14.773Z,-1.60
2023-02-09T00:58:18.364Z,-1.85
2023-02-09T01:02:21.386Z,-1.72
2023-02-09T01:06:25.901Z,-1.87
2023-02-09T01:10:28.941Z,-1.62
2023-02-09T01:14:31.991Z,-1.81
2023-02-09T01:18:35.707Z,-1.90
2023-02-09T01:22:40.626Z,-2.08
2023-02-09T01:26:43.729Z,-2.05
2023-02-09T01:30:47.107Z,-2.27
2023-02-09T01:34:52.325Z,-2.34
2023-02-09T01:38:57.373Z,-2.50
2023-02-09T01:43:00.401Z,-2.59
2023-02-09T01:47:03.389Z,-2.69
2023-02-09T01:51:06.928Z,-2.38
2023-02-09T01:55:14.424Z,-2.62
2023-02-09T01:59:17.997Z,-2.69
2023-02-09T02:03:23.695Z,-3.02
2023-02-09T02:07:32.416Z,-3.21
2023-02-09T02:11:37.194Z,-3.32
2023-02-09T02:15:50.165Z,-3.41
2023-02-09T02:20:18.401Z,-3.52
2023-02-09T02:24:42.593Z,-3.66
2023-02-09T02:29:13.266Z,-3.66
2023-02-09T02:33:30.567Z,-3.32
2023-02-09T02:37:45.584Z,-3.36
2023-02-09T02:42:13.800Z,-3.29
2023-02-09T02:46:22.574Z,-3.42
2023-02-09T02:50:30.699Z,-3.44
2023-02-09T02:54:37.708Z,-3.41
2023-02-09T02:58:43.561Z,-3.42
2023-02-09T03:02:50.722Z,-3.25
2023-02-09T03:06:55.102Z,-3.22
2023-02-09T03:10:58.461Z,-3.12
2023-02-09T03:15:19.503Z,-2.85
2023-02-09T03:19:34.340Z,-3.02
2023-02-09T03:23:46.527Z,-3.18
2023-02-09T03:27:54.825Z,-3.12
2023-02-09T03:31:58.329Z,-3.05
2023-02-09T03:36:07.924Z,-3.07
2023-02-09T03:40:13.123Z,-3.09
2023-02-09T03:44:28.027Z,-3.19
2023-02-09T03:48:31.032Z,-3.13
2023-02-09T03:52:34.466Z,-3.08
2023-02-09T03:56:38.843Z,-3.06
2023-02-09T04:00:41.923Z,-3.11
2023-02-09T04:04:45.104Z,-3.07
2023-02-09T04:08:48.392Z,-3.06
2023-02-09T04:12:52.786Z,-2.98
2023-02-09T04:16:55.937Z,-2.91
2023-02-09T04:20:58.953Z,-2.90
2023-02-09T04:25:01.951Z,-2.82
2023-02-09T04:29:06.328Z,-2.81
2023-02-09T04:33:10.842Z,-2.74
2023-02-09T04:37:13.871Z,-2.67
2023-02-09T04:41:16.929Z,-2.71
2023-02-09T04:45:21.375Z,-2.79
2023-02-09T04:49:24.423Z,-2.71
2023-02-09T04:53:29.568Z,-2.72
2023-02-09T04:57:50.110Z,-2.86
2023-02-09T05:01:54.447Z,-2.70
2023-02-09T05:05:58.796Z,-2.54
2023-02-09T05:10:01.829Z,-2.75
2023-02-09T05:14:04.894Z,-2.75
2023-02-09T05:18:09.245Z,-2.78
2023-02-09T05:22:12.254Z,-2.88
2023-02-09T05:26:15.296Z,-2.86
2023-02-09T05:30:18.557Z,-2.82
2023-02-09T05:34:23.169Z,-2.87
2023-02-09T05:38:26.249Z,-2.93
2023-02-09T05:42:29.392Z,-2.89
2023-02-09T05:46:32.657Z,-2.98
2023-02-09T05:50:37.011Z,-2.91
2023-02-09T05:54:43.253Z,-2.94
2023-02-09T05:58:46.292Z,-3.06
2023-02-09T06:02:49.276Z,-2.98
2023-02-09T06:06:54.073Z,-2.98
2023-02-09T06:10:57.095Z,-3.15
2023-02-09T06:15:00.177Z,-3.14
2023-02-09T06:19:03.466Z,-3.31
2023-02-09T06:23:07.831Z,-3.27
2023-02-09T06:27:12.599Z,-3.19
2023-02-09T06:31:15.717Z,-3.11
2023-02-09T06:35:19.119Z,-3.21
2023-02-09T06:39:24.406Z,-3.27
2023-02-09T06:43:27.755Z,-3.25
2023-02-09T06:47:30.719Z,-3.39
2023-02-09T06:51:33.754Z,-3.37
2023-02-09T06:55:38.243Z,-3.48
2023-02-09T06:59:41.265Z,-3.49
2023-02-09T07:03:44.493Z,-3.46
2023-02-09T07:07:48.041Z,-3.31
2023-02-09T07:11:52.404Z,-3.29
2023-02-09T07:15:59.072Z,-3.24
2023-02-09T07:20:02.146Z,-3.21
2023-02-09T07:24:05.786Z,-3.26
2023-02-09T07:28:11.159Z,-2.97
2023-02-09T07:32:14.230Z,-2.65
2023-02-09T07:36:18.505Z,-1.92
2023-02-09T07:40:21.629Z,-1.32
2023-02-09T07:44:26.668Z,-1.00
2023-02-09T07:48:30.173Z,-0.54
2023-02-09T07:52:33.186Z,-0.63
2023-02-09T07:56:36.229Z,-0.80
2023-02-09T08:00:40.622Z,-0.05
2023-02-09T08:04:44.763Z,0.08
2023-02-09T08:08:49.176Z,-0.09
2023-02-09T08:13:09.186Z,0.39
2023-02-09T08:17:21.278Z,0.18
2023-02-09T08:21:25.499Z,0.71
2023-02-09T08:25:28.574Z,0.63
2023-02-09T08:29:31.672Z,0.86
2023-02-09T08:33:36.086Z,0.86
2023-02-09T08:37:39.167Z,1.83
2023-02-09T08:41:42.847Z,2.31
2023-02-09T08:45:47.227Z,2.14
2023-02-09T08:49:52.089Z,2.55
2023-02-09T08:53:55.545Z,3.10
2023-02-09T08:57:58.784Z,2.89
2023-02-09T09:02:02.147Z,3.13
2023-02-09T09:06:08.703Z,2.93
2023-02-09T09:10:13.010Z,3.53
2023-02-09T09:14:16.080Z,4.42
2023-02-09T09:18:19.165Z,3.46
2023-02-09T09:22:24.428Z,3.69
2023-02-09T09:26:27.493Z,3.47
2023-02-09T09:30:30.564Z,3.56
2023-02-09T09:34:33.630Z,3.88
2023-02-09T09:38:40.202Z,3.45
2023-02-09T09:42:49.576Z,3.58
2023-02-09T09:47:01.243Z,3.29
2023-02-09T09:51:12.425Z,3.23
2023-02-09T09:55:23.446Z,3.09
2023-02-09T09:59:30.150Z,3.69
2023-02-09T10:03:33.193Z,3.65
2023-02-09T10:07:36.380Z,3.56
2023-02-09T10:11:46.419Z,3.70
2023-02-09T10:15:50.849Z,4.41
2023-02-09T10:20:04.700Z,4.97
2023-02-09T10:24:13.999Z,5.26
2023-02-09T10:28:22.980Z,5.19
2023-02-09T10:32:38.805Z,5.14
2023-02-09T10:36:49.874Z,4.18
2023-02-09T10:40:53.056Z,4.32
2023-02-09T10:45:05.034Z,4.39
2023-02-09T10:49:28.829Z,5.15
2023-02-09T10:53:34.329Z,5.32
2023-02-09T10:57:39.684Z,4.67
2023-02-09T11:01:45.851Z,5.36
2023-02-09T11:05:59.273Z,5.78
2023-02-09T11:10:05.296Z,5.92
2023-02-09T11:14:12.583Z,6.30
2023-02-09T11:18:26.434Z,6.07
2023-02-09T11:22:53.756Z,6.78
2023-02-09T11:27:01.092Z,7.30
2023-02-09T11:31:22.163Z,6.48
2023-02-09T11:35:39.046Z,5.97
2023-02-09T11:39:47.189Z,6.25
2023-02-09T11:43:51.230Z,6.83
2023-02-09T11:48:06.627Z,7.69
2023-02-09T11:52:15.384Z,7.22
2023-02-09T11:56:21.614Z,6.78
2023-02-09T12:00:30.387Z,6.98
2023-02-09T12:04:44.130Z,6.52
2023-02-09T12:08:57.071Z,6.82
2023-02-09T12:13:07.822Z,6.89
2023-02-09T12:17:15.897Z,6.90
2023-02-09T12:21:29.723Z,7.78
2023-02-09T12:25:51.177Z,7.96
2023-02-09T12:29:54.557Z,7.53
2023-02-09T12:34:28.629Z,8.39
2023-02-09T12:39:07.135Z,8.71
2023-02-09T12:43:28.109Z,8.22
2023-02-09T12:47:45.834Z,7.43
2023-02-09T12:52:07.148Z,8.03
2023-02-09T12:56:29.073Z,8.80
2023-02-09T13:00:53.648Z,8.57
2023-02-09T13:05:05.297Z,8.16
2023-02-09T13:09:14.098Z,8.29
2023-02-09T13:13:20.827Z,7.85
2023-02-09T13:17:39.175Z,7.94
2023-02-09T13:21:54.068Z,7.39
2023-02-09T13:26:02.497Z,7.59
2023-02-09T13:30:07.645Z,8.68
2023-02-09T13:34:25.068Z,8.85
2023-02-09T13:38:31.389Z,8.71
2023-02-09T13:42:37.165Z,8.61
2023-02-09T13:46:40.504Z,8.40
2023-02-09T13:50:49.156Z,8.52
2023-02-09T13:54:52.978Z,8.08
2023-02-09T13:58:57.195Z,8.46
2023-02-09T14:03:04.326Z,8.31
2023-02-09T14:07:12.156Z,8.33
2023-02-09T14:11:40.321Z,8.05
2023-02-09T14:16:28.802Z,7.59
2023-02-09T14:21:24.482Z,7.01
2023-02-09T14:26:08.460Z,7.33
2023-02-09T14:30:51.582Z,7.29
2023-02-09T14:35:34.754Z,7.56
2023-02-09T14:40:23.269Z,6.87
2023-02-09T14:45:29.847Z,6.64
2023-02-09T14:50:14.842Z,6.87
2023-02-09T14:54:57.890Z,6.67
2023-02-09T14:59:38.064Z,6.80
2023-02-09T15:04:20.475Z,6.55
2023-02-09T15:09:01.848Z,6.58
2023-02-09T15:13:42.214Z,6.39
2023-02-09T15:18:24.247Z,6.45
2023-02-09T15:23:06.247Z,6.31
2023-02-09T15:27:51.817Z,6.15
2023-02-09T15:32:32.113Z,5.88
2023-02-09T15:37:19.629Z,5.84
2023-02-09T15:42:18.532Z,5.71
2023-02-09T15:47:25.094Z,5.54
2023-02-09T15:52:05.644Z,5.42
2023-02-09T15:56:46.645Z,5.35
2023-02-09T16:01:28.595Z,5.40
2023-02-09T16:06:14.870Z,5.51
2023-02-09T16:10:55.662Z,5.58
2023-02-09T16:15:36.145Z,5.62
2023-02-09T16:20:19.098Z,5.25
2023-02-09T16:24:59.165Z,4.93
2023-02-09T16:29:39.466Z,4.71
2023-02-09T16:34:20.019Z,4.52
2023-02-09T16:39:01.555Z,4.40
2023-02-09T16:43:41.970Z,4.40
2023-02-09T16:48:26.375Z,4.28
2023-02-09T16:53:16.050Z,4.03
2023-02-09T16:57:59.854Z,3.99
2023-02-09T17:02:42.370Z,3.93
2023-02-09T17:07:23.658Z,3.88
2023-02-09T17:12:03.901Z,3.97
2023-02-09T17:16:49.809Z,4.00
2023-02-09T17:21:32.442Z,3.94
2023-02-09T17:26:13.144Z,3.72
2023-02-09T17:30:56.802Z,3.69
2023-02-09T17:40:40.183Z,3.63
2023-02-09T17:45:24.426Z,3.71
2023-02-09T17:50:04.724Z,3.77
2023-02-09T17:54:46.738Z,3.75
2023-02-09T17:59:27.125Z,3.76
2023-02-09T18:04:08.326Z,3.79
2023-02-09T18:08:48.264Z,3.88
2023-02-09T18:13:29.781Z,3.99
2023-02-09T18:18:10.508Z,4.07
2023-02-09T18:22:51.331Z,4.13
2023-02-09T18:27:31.588Z,4.19
2023-02-09T18:32:15.668Z,4.20
2023-02-09T18:36:55.687Z,4.24
2023-02-09T18:41:35.989Z,4.29
2023-02-09T18:46:16.668Z,4.31
2023-02-09T18:50:58.424Z,4.35
2023-02-09T18:55:39.052Z,4.37
2023-02-09T19:00:20.497Z,4.40
2023-02-09T19:05:02.690Z,4.44
2023-02-09T19:09:46.129Z,4.45
2023-02-09T19:14:38.098Z,4.46
2023-02-09T19:19:19.093Z,4.42
2023-02-09T19:23:59.230Z,4.46
2023-02-09T19:28:40.655Z,4.45
2023-02-09T19:33:23.178Z,4.49
2023-02-09T19:38:03.652Z,4.48
2023-02-09T19:42:43.567Z,4.55
2023-02-09T19:47:27.518Z,4.43
2023-02-09T19:52:08.240Z,4.45
2023-02-09T19:56:48.604Z,4.45
2023-02-09T20:01:29.768Z,4.49
2023-02-09T20:06:13.968Z,4.56
2023-02-09T20:10:54.223Z,4.53
2023-02-09T20:15:34.257Z,4.56
2023-02-09T20:20:14.427Z,4.54
2023-02-09T20:24:56.325Z,4.41
2023-02-09T20:29:36.559Z,4.35
2023-02-09T20:34:17.569Z,4.38
2023-02-09T20:38:57.807Z,4.38
2023-02-09T20:43:57.771Z,4.37
2023-02-09T20:48:38.032Z,4.37
2023-02-09T20:53:18.252Z,4.39
2023-02-09T20:57:58.726Z,4.38
2023-02-09T21:02:40.608Z,4.42
2023-02-09T21:07:21.145Z,4.43
2023-02-09T21:12:01.341Z,4.44
2023-02-09T21:16:42.776Z,4.43
2023-02-09T21:21:26.261Z,4.39
2023-02-09T21:26:08.341Z,4.38
2023-02-09T21:30:48.852Z,4.41
2023-02-09T21:35:28.967Z,4.45
2023-02-09T21:40:11.602Z,4.42
2023-02-09T21:44:51.786Z,4.40
2023-02-09T21:49:32.701Z,4.39
2023-02-09T21:54:14.666Z,4.40
2023-02-09T21:58:56.113Z,4.42
2023-02-09T22:03:35.888Z,4.40
2023-02-09T22:08:16.102Z,4.38
2023-02-09T22:12:56.374Z,4.39
2023-02-09T22:17:39.532Z,4.38
2023-02-09T22:22:19.874Z,4.37
2023-02-09T22:27:00.136Z,4.33
2023-02-09T22:31:40.337Z,4.31
2023-02-09T22:36:23.427Z,4.34
2023-02-09T22:41:05.781Z,4.34
2023-02-09T22:45:46.417Z,4.36
2023-02-09T22:50:26.921Z,4.32
2023-02-09T22:55:08.682Z,4.26
2023-02-09T22:59:48.767Z,4.21
2023-02-09T23:04:31.970Z,4.16
2023-02-09T23:09:16.677Z,3.96
2023-02-09T23:14:14.207Z,3.80
2023-02-09T23:18:56.329Z,3.68
2023-02-09T23:23:36.826Z,3.62
2023-02-09T23:28:17.242Z,3.65
2023-02-09T23:32:58.959Z,3.53
2023-02-09T23:37:38.843Z,3.51
2023-02-09T23:42:18.609Z,3.39
2023-02-09T23:46:58.800Z,3.21
2023-02-09T23:51:40.225Z,3.13
2023-02-09T23:56:21.155Z,3.10
